createdAt,value
2023-01-15T00:01:31.941Z,57.76
2023-01-15T00:04:01.310Z,57.73
2023-01-15T00:06:32.790Z,57.83
2023-01-15T00:09:02.563Z,57.68
2023-01-15T00:11:34.483Z,57.80
2023-01-15T00:14:04.801Z,58.09
2023-01-15T00:16:34.420Z,58.30
2023-01-15T00:19:04.671Z,58.97
2023-01-15T00:21:34.963Z,58.53
2023-01-15T00:24:20.984Z,58.72
2023-01-15T00:27:09.677Z,59.43
2023-01-15T00:29:39.191Z,59.02
2023-01-15T00:32:10.842Z,58.97
2023-01-15T00:34:40.680Z,59.11
2023-01-15T00:37:10.217Z,59.12
2023-01-15T00:39:40.488Z,59.10
2023-01-15T00:42:13.252Z,59.15
2023-01-15T00:44:44.175Z,59.05
2023-01-15T00:47:15.194Z,59.07
2023-01-15T00:49:46.412Z,59.28
2023-01-15T00:52:16.791Z,59.11
2023-01-15T00:54:46.307Z,59.34
2023-01-15T00:57:17.316Z,59.38
2023-01-15T00:59:47.868Z,59.33
2023-01-15T01:02:16.597Z,59.19
2023-01-15T01:04:46.414Z,59.26
2023-01-15T01:07:15.490Z,59.67
2023-01-15T01:09:48.270Z,59.60
2023-01-15T01:12:21.179Z,59.59
2023-01-15T01:14:50.801Z,59.87
2023-01-15T01:17:22.859Z,59.91
2023-01-15T01:19:51.489Z,60.23
2023-01-15T01:22:21.724Z,60.34
2023-01-15T01:24:51.167Z,60.54
2023-01-15T01:27:21.372Z,60.70
2023-01-15T01:29:50.556Z,60.79
2023-01-15T01:32:18.958Z,60.83
2023-01-15T01:34:49.419Z,60.92
2023-01-15T01:37:19.237Z,61.13
2023-01-15T01:39:47.931Z,61.14
2023-01-15T01:42:19.844Z,61.20
2023-01-15T01:45:11.071Z,61.37
2023-01-15T01:47:40.540Z,61.45
2023-01-15T01:50:13.638Z,61.66
2023-01-15T01:52:47.481Z,61.70
2023-01-15T01:55:21.248Z,61.55
2023-01-15T01:57:51.929Z,61.52
2023-01-15T02:00:24.858Z,61.78
2023-01-15T02:02:55.095Z,61.80
2023-01-15T02:05:30.637Z,61.96
2023-01-15T02:07:59.157Z,62.15
2023-01-15T02:10:29.954Z,62.37
2023-01-15T02:13:08.694Z,62.40
2023-01-15T02:15:45.060Z,62.45
2023-01-15T02:18:21.130Z,62.60
2023-01-15T02:20:55.020Z,62.93
2023-01-15T02:23:49.203Z,63.24
2023-01-15T02:26:34.127Z,63.66
2023-01-15T02:29:09.886Z,63.82
2023-01-15T02:31:42.238Z,63.92
2023-01-15T02:34:18.052Z,63.75
2023-01-15T02:36:53.936Z,63.97
2023-01-15T02:39:29.616Z,63.92
2023-01-15T02:42:05.283Z,63.82
2023-01-15T02:44:43.363Z,64.10
2023-01-15T02:47:16.352Z,63.87
2023-01-15T02:49:47.164Z,63.78
2023-01-15T02:52:24.790Z,63.73
2023-01-15T02:54:57.913Z,63.53
2023-01-15T02:57:31.962Z,63.77
2023-01-15T03:00:05.032Z,63.84
2023-01-15T03:02:40.668Z,63.68
2023-01-15T03:05:12.363Z,63.70
2023-01-15T03:07:46.627Z,63.62
2023-01-15T03:10:16.753Z,63.75
2023-01-15T03:13:03.968Z,63.92
2023-01-15T03:16:12.050Z,64.03
2023-01-15T03:18:46.573Z,64.11
2023-01-15T03:21:21.447Z,64.48
2023-01-15T03:23:55.071Z,64.48
2023-01-15T03:26:28.958Z,64.96
2023-01-15T03:28:58.877Z,65.03
2023-01-15T03:31:30.651Z,65.24
2023-01-15T03:34:00.513Z,65.52
2023-01-15T03:36:30.923Z,65.76
2023-01-15T03:39:03.444Z,65.96
2023-01-15T03:42:16.166Z,66.16
2023-01-15T03:44:56.110Z,66.28
2023-01-15T03:47:34.964Z,66.75
2023-01-15T03:50:11.047Z,67.05
2023-01-15T03:52:47.539Z,67.27
2023-01-15T03:55:24.144Z,67.58
2023-01-15T03:58:06.610Z,67.72
2023-01-15T04:00:44.547Z,67.63
2023-01-15T04:03:20.004Z,67.64
2023-01-15T04:05:50.254Z,68.00
2023-01-15T04:08:24.697Z,68.07
2023-01-15T04:10:55.141Z,67.95
2023-01-15T04:13:28.204Z,68.01
2023-01-15T04:16:00.350Z,68.26
2023-01-15T04:18:30.741Z,68.12
2023-01-15T04:20:59.395Z,68.36
2023-01-15T04:23:30.855Z,68.29
2023-01-15T04:25:59.899Z,68.53
2023-01-15T04:28:31.944Z,68.74
2023-01-15T04:31:03.334Z,68.42
2023-01-15T04:33:39.872Z,69.02
2023-01-15T04:36:21.618Z,68.88
2023-01-15T04:39:05.942Z,69.12
2023-01-15T04:41:53.983Z,69.38
2023-01-15T04:44:26.798Z,69.52
2023-01-15T04:47:00.255Z,69.80
2023-01-15T04:49:30.965Z,70.04
2023-01-15T04:52:04.239Z,70.33
2023-01-15T04:54:32.642Z,70.16
2023-01-15T04:57:04.440Z,70.25
2023-01-15T04:59:33.447Z,69.99
2023-01-15T05:02:06.038Z,70.13
2023-01-15T05:04:37.890Z,69.91
2023-01-15T05:07:06.874Z,69.75
2023-01-15T05:09:36.220Z,69.52
2023-01-15T05:12:05.470Z,69.50
2023-01-15T05:14:33.960Z,69.58
2023-01-15T05:17:04.139Z,69.22
2023-01-15T05:19:32.962Z,68.91
2023-01-15T05:22:04.812Z,69.02
2023-01-15T05:24:34.900Z,68.88
2023-01-15T05:27:05.292Z,68.72
2023-01-15T05:29:34.616Z,68.86
2023-01-15T05:32:03.701Z,68.88
2023-01-15T05:34:32.981Z,68.84
2023-01-15T05:37:04.123Z,68.74
2023-01-15T05:39:32.771Z,68.71
2023-01-15T05:42:04.311Z,68.50
2023-01-15T05:44:37.265Z,68.43
2023-01-15T05:47:07.725Z,68.44
2023-01-15T05:49:37.428Z,68.51
2023-01-15T05:52:08.343Z,68.50
2023-01-15T05:54:39.412Z,68.44
2023-01-15T05:57:08.383Z,68.31
2023-01-15T05:59:37.708Z,68.28
2023-01-15T06:02:06.550Z,68.48
2023-01-15T06:04:36.927Z,68.43
2023-01-15T06:07:07.900Z,68.51
2023-01-15T06:09:36.511Z,68.63
2023-01-15T06:12:06.319Z,68.64
2023-01-15T06:14:35.064Z,68.64
2023-01-15T06:17:04.771Z,68.97
2023-01-15T06:19:34.165Z,68.75
2023-01-15T06:22:03.794Z,68.87
2023-01-15T06:24:34.467Z,68.93
2023-01-15T06:27:03.301Z,68.94
2023-01-15T06:29:31.821Z,69.08
2023-01-15T06:32:01.156Z,69.09
2023-01-15T06:34:29.639Z,69.07
2023-01-15T06:37:00.260Z,68.88
2023-01-15T06:39:29.249Z,68.61
2023-01-15T06:42:16.855Z,68.45
2023-01-15T06:45:03.582Z,68.64
2023-01-15T06:47:32.123Z,68.21
2023-01-15T06:50:01.298Z,67.87
2023-01-15T06:52:32.083Z,67.72
2023-01-15T06:55:00.661Z,67.43
2023-01-15T06:57:31.046Z,67.22
2023-01-15T07:00:00.392Z,67.09
2023-01-15T07:02:29.462Z,66.59
2023-01-15T07:04:58.430Z,66.67
2023-01-15T07:07:32.495Z,66.12
2023-01-15T07:10:04.108Z,66.13
2023-01-15T07:12:42.795Z,65.86
2023-01-15T07:15:34.074Z,65.44
2023-01-15T07:18:09.193Z,65.48
2023-01-15T07:20:42.097Z,65.17
2023-01-15T07:23:16.884Z,65.03
2023-01-15T07:25:53.063Z,64.91
2023-01-15T07:28:28.237Z,64.72
2023-01-15T07:31:06.906Z,64.64
2023-01-15T07:33:45.658Z,64.44
2023-01-15T07:36:24.046Z,64.42
2023-01-15T07:39:02.403Z,64.19
2023-01-15T07:42:01.924Z,63.95
2023-01-15T07:44:59.104Z,64.04
2023-01-15T07:47:53.451Z,63.95
2023-01-15T07:50:34.636Z,63.82
2023-01-15T07:53:18.928Z,63.95
2023-01-15T07:56:06.935Z,63.79
2023-01-15T07:59:25.028Z,63.84
2023-01-15T08:02:40.916Z,63.83
2023-01-15T08:15:45.358Z,63.97
2023-01-15T08:21:57.665Z,64.57
2023-01-15T08:28:27.582Z,64.95
2023-01-15T08:39:33.500Z,65.93
2023-01-15T10:19:17.200Z,66.02
2023-01-15T10:22:06.787Z,66.72
2023-01-15T10:25:09.880Z,67.36
2023-01-15T10:27:48.407Z,67.66
2023-01-15T10:30:31.979Z,68.31
2023-01-15T10:33:14.357Z,68.64
2023-01-15T10:35:57.770Z,68.86
2023-01-15T10:38:35.240Z,68.58
2023-01-15T11:59:17.989Z,66.00
2023-01-15T12:36:30.460Z,66.49
2023-01-15T14:35:38.317Z,68.64
2023-01-15T15:01:08.023Z,68.71
2023-01-15T15:45:40.602Z,68.62
2023-01-15T15:48:32.658Z,68.54
2023-01-15T16:57:05.774Z,70.50
2023-01-15T17:27:36.372Z,71.74
2023-01-15T17:30:20.126Z,71.71
2023-01-15T22:27:16.128Z,66.24
